< < Back
Terminal Aerodrome Forecast


Current Version              Previous Versions:   1  2  3  4  5  6  7  8  9  

Terminal Aerodrome Forecast

662
FTUS44 KMOB 102340
TAFPNS
TAF
KPNS 102340Z 1100/1124 26007KT P6SM SKC
     FM111600 22012G18KT P6SM SKC=



Latest METAR

199
SAUS70 KWBC 110800 RRI
MTRPNS
METAR KPNS 110753Z AUTO 26005KT 10SM CLR 08/03 A3021 RMK AO2 SLP232
T00830028 TSNO


USA.gov is the U.S. government's official web portal to all federal, state and local government web resources and services.